메인 페이지
METAR-TAF:

METAR-TAF

공항 :

Fallon, 네바다, 미국

위도: 39-25-56N, 경도: 118-41-08W, 고도: 1199m

현재 날씨관측

예보는 1 시간 2분 전, 21:56시(UTC)에 발표되었습니다.
여러 방향의 바람 5kt
온도 21°C
습도 40%
기압 1018 hPa
시정: 16.1km
고도 6000ft 상공 구름 많음
고도 12000ft 상공 구름 많음
고도 25000ft 상공 구름 많음

METAR: KNFL 272156Z VRB05KT 10SM BKN060 BKN120 BKN250 21/07 A3005 RMK AO2 SLP143 T02060072

시각: 15:58 (22:58 UTC)

예보

예보 대상 시간: 25일 23시부터 26일 23시까지 (UTC)
16kt, 순간 최대 풍속 25kt
시정 10km 이상
고도 6000ft 상공 구름 보통
고도 10000ft 상공 구름 많음
고도 25000ft 상공 구름 많음
시계 내 뇌우
일시적
25일 23시부터 26일 05시까지 (UTC)
여러 방향의 바람 15kt, 순간 최대 풍속 30kt
시정: 8000m
고도 5000ft 상공 구름 많음, 적란운.
고도 9000ft 상공 흐림
뇌우, 약한비
전환 중
26일 05시부터 26일 07시까지 (UTC)
서남서9kt
시정 10km 이상
고도 6000ft 상공 구름 보통
고도 12000ft 상공 구름 보통
고도 20000ft 상공 구름 많음
시계 내 소나기
26일 2000시부터 (UTC)
서북서11kt, 순간 최대 풍속 22kt
시정: 2907m
고도 7000ft 상공 구름 보통
고도 12000ft 상공 구름 많음
고도 22000ft 상공 구름 많음
시계 내 소나기

TAF: KNFL 2523/2623 27016G25KT 9999 VCTS SCT060 BKN100 BKN250 520009 520909 QNH2989INS TEMPO 2523/2605 VRB15G30KT 8000 -TSRA BKN050CB OVC090 BECMG 2605/2607 25009KT 9999 VCSH SCT060 SCT120 BKN200 500000 QNH2998INS FM262000 30011G22KT 9999 VCSH SCT070 BKN120 BKN220 QNH3001INS LAST NO AMDS AFT 2523 NEXT 2907 T07/2613Z T16/2623Z FS30105

4,000개 이상의 공항 관측 자료 및 예보 (METAR 및 TAF 보고).

지도상에서 검색 가능한 기상관측소가 노란 점과 빨간 점으로 표시되어 있습니다.

기상관측소 명을 보려면 표시 위로 마우스를 이동하세요.

날씨 관측과 예보를 보려면 클릭하세요.

지도 변경 : 확대하려면 엑스 표시가 있는 녹색 버튼, 축소하려면 빼기 표시가 있는 녹색 버튼, 다음 페이지의 지도를 보려면 녹색 화살표를 클릭하세요.


METAR-TAF: